createdAt,value
2022-08-05T00:01:20.521Z,18.8
2022-08-05T00:03:21.117Z,18.8
2022-08-05T00:06:03.030Z,18.7
2022-08-05T00:08:00.465Z,18.7
2022-08-05T00:09:30.603Z,18.8
2022-08-05T00:11:35.021Z,18.7
2022-08-05T00:13:38.703Z,18.8
2022-08-05T00:15:55.301Z,18.8
2022-08-05T00:17:39.068Z,18.7
2022-08-05T00:19:44.153Z,18.7
2022-08-05T00:21:43.306Z,18.8
2022-08-05T00:23:53.421Z,18.9
2022-08-05T00:25:50.685Z,18.8
2022-08-05T00:27:52.819Z,18.9
2022-08-05T00:29:56.363Z,18.8
2022-08-05T00:32:11.101Z,18.8
2022-08-05T00:34:55.423Z,18.8
2022-08-05T00:36:16.152Z,18.9
2022-08-05T00:38:06.533Z,18.9
2022-08-05T00:40:09.404Z,18.9
2022-08-05T00:42:10.759Z,18.8
2022-08-05T00:43:15.369Z,18.8
2022-08-05T00:45:15.509Z,18.7
2022-08-05T00:47:17.587Z,18.7
2022-08-05T00:49:19.726Z,18.6
2022-08-05T00:51:50.528Z,18.6
2022-08-05T00:54:01.264Z,18.7
2022-08-05T00:55:34.221Z,18.5
2022-08-05T01:01:48.177Z,18.5
2022-08-05T01:08:30.449Z,18.6
2022-08-05T01:11:50.766Z,18.6
2022-08-05T01:13:58.511Z,18.6
2022-08-05T01:15:54.993Z,18.5
2022-08-05T01:17:57.109Z,18.5
2022-08-05T01:20:03.422Z,18.5
2022-08-05T01:22:04.572Z,18.6
2022-08-05T01:24:13.062Z,18.6
2022-08-05T01:26:08.730Z,18.5
2022-08-05T01:28:10.847Z,18.5
2022-08-05T01:30:19.000Z,18.5
2022-08-05T01:32:18.617Z,18.6
2022-08-05T01:34:20.336Z,18.5
2022-08-05T01:36:28.072Z,18.6
2022-08-05T01:38:27.533Z,18.6
2022-08-05T01:39:36.893Z,18.6
2022-08-05T01:41:29.307Z,18.6
2022-08-05T01:43:31.427Z,18.6
2022-08-05T01:45:34.935Z,18.5
2022-08-05T01:47:43.134Z,18.5
2022-08-05T01:50:00.317Z,18.5
2022-08-05T01:51:43.011Z,18.5
2022-08-05T01:55:47.235Z,18.4
2022-08-05T01:58:10.980Z,18.5
2022-08-05T01:59:51.441Z,18.5
2022-08-05T02:01:57.676Z,18.5
2022-08-05T02:03:58.826Z,18.5
2022-08-05T02:06:03.572Z,18.5
2022-08-05T02:08:03.065Z,18.5
2022-08-05T02:10:05.201Z,18.5
2022-08-05T02:12:10.198Z,18.5
2022-08-05T02:14:12.660Z,18.6
2022-08-05T02:16:16.557Z,18.6
2022-08-05T02:18:28.194Z,18.7
2022-08-05T02:22:26.433Z,18.5
2022-08-05T02:26:26.480Z,18.6
2022-08-05T02:28:31.252Z,18.6
2022-08-05T02:30:34.289Z,18.5
2022-08-05T02:32:35.814Z,18.5
2022-08-05T02:34:37.916Z,18.5
2022-08-05T02:37:06.715Z,18.6
2022-08-05T02:39:08.959Z,18.5
2022-08-05T02:41:17.233Z,18.4
2022-08-05T02:43:16.075Z,18.4
2022-08-05T02:53:26.630Z,18.5
2022-08-05T02:55:54.671Z,18.4
2022-08-05T02:59:50.105Z,18.3
2022-08-05T03:04:02.748Z,18.2
2022-08-05T03:06:55.220Z,18.3
2022-08-05T03:09:51.752Z,18.3
2022-08-05T03:11:55.827Z,18.3
2022-08-05T03:14:03.311Z,18.3
2022-08-05T03:15:56.191Z,18.3
2022-08-05T03:17:59.521Z,18.2
2022-08-05T03:20:00.413Z,18.3
2022-08-05T03:22:04.743Z,18.1
2022-08-05T03:24:04.634Z,18.2
2022-08-05T03:26:31.996Z,18.2
2022-08-05T03:31:25.839Z,18.2
2022-08-05T03:33:18.883Z,18.1
2022-08-05T03:35:20.998Z,18.2
2022-08-05T03:37:23.357Z,18.2
2022-08-05T03:39:28.442Z,18.1
2022-08-05T03:41:32.908Z,18.1
2022-08-05T03:44:08.401Z,18.2
2022-08-05T03:45:57.116Z,18.1
2022-08-05T03:47:41.347Z,18.1
2022-08-05T03:49:51.687Z,18.1
2022-08-05T03:52:39.167Z,18.2
2022-08-05T03:55:49.852Z,18.2
2022-08-05T03:56:09.337Z,18.2
2022-08-05T03:57:50.684Z,18.1
2022-08-05T04:04:10.341Z,18.1
2022-08-05T04:05:59.374Z,18.1
2022-08-05T04:10:07.863Z,18
2022-08-05T04:12:23.550Z,18
2022-08-05T04:14:10.672Z,18
2022-08-05T04:16:12.754Z,18
2022-08-05T04:18:17.233Z,18
2022-08-05T04:24:24.396Z,18
2022-08-05T04:26:26.487Z,18
2022-08-05T04:29:31.220Z,17.9
2022-08-05T04:31:37.532Z,17.9
2022-08-05T04:34:18.207Z,17.9
2022-08-05T04:36:15.723Z,17.8
2022-08-05T04:38:02.663Z,17.8
2022-08-05T04:39:44.971Z,17.9
2022-08-05T04:41:48.011Z,17.9
2022-08-05T04:43:51.995Z,17.9
2022-08-05T04:45:55.680Z,17.9
2022-08-05T04:47:53.378Z,17.8
2022-08-05T04:50:06.528Z,17.8
2022-08-05T04:52:00.818Z,17.7
2022-08-05T04:54:02.867Z,17.8
2022-08-05T04:56:33.903Z,17.8
2022-08-05T04:58:07.099Z,17.8
2022-08-05T05:00:09.258Z,17.8
2022-08-05T05:02:36.083Z,17.7
2022-08-05T05:04:16.589Z,17.8
2022-08-05T05:06:39.694Z,17.9
2022-08-05T05:08:26.607Z,17.9
2022-08-05T05:12:25.054Z,17.8
2022-08-05T05:14:31.619Z,17.8
2022-08-05T05:16:30.417Z,17.9
2022-08-05T05:18:34.570Z,17.9
2022-08-05T05:20:36.668Z,17.8
2022-08-05T05:22:40.755Z,17.8
2022-08-05T05:24:03.907Z,17.9
2022-08-05T05:25:43.533Z,17.8
2022-08-05T05:27:48.486Z,17.8
2022-08-05T05:30:04.303Z,17.8
2022-08-05T05:31:53.038Z,17.8
2022-08-05T05:33:59.385Z,17.8
2022-08-05T05:35:57.298Z,17.8
2022-08-05T05:40:01.514Z,17.8
2022-08-05T05:42:03.635Z,17.9
2022-08-05T05:44:05.745Z,18
2022-08-05T05:46:15.819Z,18
2022-08-05T05:48:16.161Z,18.1
2022-08-05T05:52:28.425Z,17.9
2022-08-05T05:56:26.127Z,18
2022-08-05T05:58:30.282Z,17.8
2022-08-05T06:02:36.719Z,18
2022-08-05T06:04:33.306Z,18
2022-08-05T06:06:35.331Z,18
2022-08-05T06:08:37.442Z,18.1
2022-08-05T06:10:49.081Z,18.1
2022-08-05T06:12:42.335Z,18.3
2022-08-05T06:14:46.935Z,18.3
2022-08-05T06:16:49.046Z,18.2
2022-08-05T06:18:53.670Z,18.1
2022-08-05T06:21:19.831Z,18.5
2022-08-05T06:23:21.966Z,18.6
2022-08-05T06:29:49.317Z,18.5
2022-08-05T06:31:33.771Z,18.5
2022-08-05T06:34:06.437Z,18.5
2022-08-05T06:36:04.151Z,18.3
2022-08-05T06:37:56.163Z,18.4
2022-08-05T06:39:42.054Z,18.5
2022-08-05T06:41:47.306Z,18.5
2022-08-05T06:43:58.071Z,18.6
2022-08-05T06:48:44.333Z,18.5
2022-08-05T06:51:57.841Z,18.9
2022-08-05T06:56:06.752Z,18.8
2022-08-05T07:02:13.095Z,19
2022-08-05T07:04:15.199Z,19
2022-08-05T07:10:32.196Z,19.2
2022-08-05T07:17:59.113Z,19
2022-08-05T07:20:30.954Z,19
2022-08-05T07:22:00.115Z,19
2022-08-05T07:23:49.937Z,19.1
2022-08-05T07:25:56.123Z,19.2
2022-08-05T07:27:57.514Z,19.1
2022-08-05T07:30:24.187Z,19.2
2022-08-05T07:31:54.499Z,19.4
2022-08-05T07:33:53.710Z,19.5
2022-08-05T07:36:05.937Z,19.4
2022-08-05T07:38:01.079Z,19.6
2022-08-05T07:40:26.304Z,19.7
2022-08-05T07:42:14.039Z,19.8
2022-08-05T07:44:12.166Z,19.8
2022-08-05T07:46:18.871Z,19.7
2022-08-05T07:48:11.662Z,19.7
2022-08-05T07:52:19.024Z,19.8
2022-08-05T07:57:01.345Z,19.9
2022-08-05T07:58:58.700Z,20
2022-08-05T08:00:27.095Z,20.2
2022-08-05T08:06:36.620Z,20.7
2022-08-05T08:11:47.878Z,21.6
2022-08-05T08:13:49.277Z,21.7
2022-08-05T08:16:49.986Z,21.7
2022-08-05T08:17:52.901Z,21.5
2022-08-05T08:21:57.106Z,21.3
2022-08-05T08:24:03.225Z,21.3
2022-08-05T08:26:02.766Z,21.4
2022-08-05T08:28:03.476Z,21.3
2022-08-05T08:30:29.657Z,20.8
2022-08-05T08:32:07.623Z,20.7
2022-08-05T08:38:17.054Z,20.4
2022-08-05T08:40:19.221Z,20.3
2022-08-05T08:45:20.619Z,20.5
2022-08-05T08:51:04.162Z,20.6
2022-08-05T08:52:34.963Z,20.7
2022-08-05T08:54:37.090Z,21.2
2022-08-05T08:56:47.428Z,21.2
2022-08-05T09:00:44.408Z,21.7
2022-08-05T09:06:52.846Z,21.9
2022-08-05T09:07:57.437Z,21.6
2022-08-05T09:09:57.566Z,21.5
2022-08-05T09:12:04.629Z,21.6
2022-08-05T09:14:54.619Z,21.9
2022-08-05T09:16:07.025Z,22.1
2022-08-05T09:18:09.131Z,22.1
2022-08-05T09:20:11.234Z,22.3
2022-08-05T09:22:17.623Z,22.3
2022-08-05T09:24:15.613Z,22.4
2022-08-05T09:26:22.270Z,22.2
2022-08-05T09:30:24.859Z,22
2022-08-05T09:32:41.686Z,22
2022-08-05T09:34:29.077Z,22
2022-08-05T09:36:33.612Z,22.3
2022-08-05T09:38:33.254Z,22.3
2022-08-05T09:40:35.342Z,22.2
2022-08-05T09:42:37.444Z,22.4
2022-08-05T09:44:42.714Z,22.8
2022-08-05T09:46:53.658Z,22.7
2022-08-05T09:50:49.013Z,22.8
2022-08-05T09:54:53.167Z,23.2
2022-08-05T09:56:55.249Z,23
2022-08-05T09:59:00.514Z,22.9
2022-08-05T10:01:13.246Z,22.9
2022-08-05T10:03:04.800Z,23.1
2022-08-05T10:05:33.530Z,23.2
2022-08-05T10:08:35.113Z,23.3
2022-08-05T10:11:42.771Z,23.4
2022-08-05T10:13:47.631Z,23.5
2022-08-05T10:15:46.928Z,23.2
2022-08-05T10:20:04.163Z,23
2022-08-05T10:21:53.185Z,23
2022-08-05T10:24:00.345Z,23.3
2022-08-05T10:26:00.492Z,23.3
2022-08-05T10:28:13.895Z,23.5
2022-08-05T10:30:42.042Z,23.4
2022-08-05T10:32:52.974Z,23.3
2022-08-05T10:34:08.874Z,23.1
2022-08-05T10:38:13.023Z,23.1
2022-08-05T10:42:22.926Z,23
2022-08-05T10:44:22.438Z,22.9
2022-08-05T10:46:24.504Z,23.1
2022-08-05T10:48:30.341Z,23.3
2022-08-05T10:50:35.420Z,23
2022-08-05T10:52:30.750Z,23
2022-08-05T10:56:38.113Z,23.3
2022-08-05T10:58:48.602Z,23.5
2022-08-05T11:00:04.430Z,23.5
2022-08-05T11:01:54.675Z,23.4
2022-08-05T11:08:01.445Z,23.4
2022-08-05T11:10:03.982Z,23.4
2022-08-05T11:11:58.643Z,23.3
2022-08-05T11:14:00.756Z,23.1
2022-08-05T11:16:02.809Z,22.7
2022-08-05T11:18:04.875Z,22.5
2022-08-05T11:20:11.535Z,22.4
2022-08-05T11:22:12.231Z,22.5
2022-08-05T11:24:30.695Z,22.7
2022-08-05T11:26:16.397Z,23
2022-08-05T11:28:18.482Z,23.1
2022-08-05T11:32:22.644Z,23.2
2022-08-05T11:34:26.277Z,23.2
2022-08-05T11:38:45.438Z,23.4
2022-08-05T11:40:34.199Z,23.6
2022-08-05T11:42:40.387Z,23.4
2022-08-05T11:44:40.330Z,23
2022-08-05T11:47:10.195Z,23
2022-08-05T11:48:42.528Z,23
2022-08-05T11:50:47.786Z,23.2
2022-08-05T11:55:54.604Z,23.2
2022-08-05T11:58:09.240Z,23
2022-08-05T11:59:58.738Z,22.7
2022-08-05T12:10:12.791Z,23
2022-08-05T12:12:14.414Z,23.1
2022-08-05T12:14:16.968Z,22.9
2022-08-05T12:16:18.631Z,22.8
2022-08-05T12:18:24.360Z,22.7
2022-08-05T12:20:33.588Z,22.7
2022-08-05T12:22:28.006Z,22.9
2022-08-05T12:24:30.219Z,22.8
2022-08-05T12:26:32.152Z,22.9
2022-08-05T12:28:34.262Z,22.9
2022-08-05T12:30:36.349Z,23
2022-08-05T12:32:41.593Z,22.8
2022-08-05T12:34:43.658Z,22.6
2022-08-05T12:36:45.858Z,22.5
2022-08-05T12:38:47.837Z,22.6
2022-08-05T12:40:49.900Z,22.8
2022-08-05T12:44:54.111Z,22.7
2022-08-05T12:47:00.867Z,22.6
2022-08-05T12:49:05.763Z,22.4
2022-08-05T12:51:05.050Z,22.6
2022-08-05T12:52:13.117Z,22.9
2022-08-05T12:58:49.212Z,22.9
2022-08-05T13:02:21.335Z,23
2022-08-05T13:04:23.315Z,23.3
2022-08-05T13:06:25.411Z,23.4
2022-08-05T13:10:29.601Z,23.5
2022-08-05T13:14:36.944Z,23.7
2022-08-05T13:16:38.992Z,23.5
2022-08-05T13:18:41.065Z,23.9
2022-08-05T13:20:43.168Z,23.9
2022-08-05T13:22:45.244Z,24.2
2022-08-05T13:24:57.588Z,24.4
2022-08-05T13:26:50.744Z,23.8
2022-08-05T13:28:54.640Z,23.6
2022-08-05T13:30:57.092Z,23.3
2022-08-05T13:33:01.438Z,23.7
2022-08-05T13:35:00.887Z,23.8
2022-08-05T13:37:02.986Z,23.8
2022-08-05T13:39:24.084Z,24.4
2022-08-05T13:41:07.123Z,24.5
2022-08-05T13:43:12.460Z,24.4
2022-08-05T13:45:14.426Z,24
2022-08-05T13:47:36.030Z,23.9
2022-08-05T13:49:45.238Z,23.5
2022-08-05T13:51:47.280Z,23.6
2022-08-05T13:53:49.186Z,23.4
2022-08-05T13:55:58.865Z,22.4
2022-08-05T14:04:02.700Z,23.3
2022-08-05T14:06:26.102Z,23.7
2022-08-05T14:08:11.304Z,23.3
2022-08-05T14:10:12.265Z,22.6
2022-08-05T14:12:17.420Z,22.4
2022-08-05T14:14:16.213Z,22.6
2022-08-05T14:16:19.201Z,22.5
2022-08-05T14:20:27.308Z,22.5
2022-08-05T14:22:30.191Z,22.6
2022-08-05T14:24:29.776Z,22.1
2022-08-05T14:26:38.778Z,22.1
2022-08-05T14:28:33.953Z,22
2022-08-05T14:30:36.068Z,21.6
2022-08-05T14:32:38.174Z,21.8
2022-08-05T14:34:40.208Z,22.1
2022-08-05T14:36:42.325Z,22.1
2022-08-05T14:38:47.550Z,22.6
2022-08-05T14:40:49.652Z,22.8
2022-08-05T14:42:51.859Z,22.6
2022-08-05T14:45:56.439Z,22.6
2022-08-05T14:48:05.836Z,23.2
2022-08-05T14:56:10.048Z,24.4
2022-08-05T14:58:13.993Z,24
2022-08-05T15:00:14.324Z,24.6
2022-08-05T15:02:16.340Z,24.6
2022-08-05T15:04:20.564Z,23.7
2022-08-05T15:06:28.034Z,23.8
2022-08-05T15:08:57.583Z,24
2022-08-05T15:10:28.860Z,23.5
2022-08-05T15:12:45.686Z,23
2022-08-05T15:14:34.804Z,22.7
2022-08-05T15:16:33.887Z,22.6
2022-08-05T15:18:35.940Z,22.6
2022-08-05T15:20:41.168Z,22.6
2022-08-05T15:22:44.729Z,23
2022-08-05T15:24:45.292Z,23.5
2022-08-05T15:26:47.376Z,23.9
2022-08-05T15:28:52.002Z,24.1
2022-08-05T15:30:53.035Z,24.2
2022-08-05T15:32:53.558Z,23.3
2022-08-05T15:34:58.796Z,22.7
2022-08-05T15:37:06.497Z,22.7
2022-08-05T15:41:03.838Z,22.7
2022-08-05T15:46:11.690Z,22.7
2022-08-05T15:52:51.691Z,22.2
2022-08-05T15:54:34.692Z,22.1
2022-08-05T15:56:25.199Z,21.6
2022-08-05T15:58:27.244Z,21.5
2022-08-05T16:02:34.754Z,21.4
2022-08-05T16:04:36.633Z,21.5
2022-08-05T16:06:38.741Z,21.5
2022-08-05T16:08:40.799Z,22.4
2022-08-05T16:10:42.894Z,23.2
2022-08-05T16:12:44.938Z,23.6
2022-08-05T16:14:47.023Z,23.5
2022-08-05T16:16:52.267Z,22.9
2022-08-05T16:18:54.330Z,23.3
2022-08-05T16:20:56.393Z,24
2022-08-05T16:22:58.457Z,23.6
2022-08-05T16:35:14.004Z,22.8
2022-08-05T16:36:20.526Z,22.5
2022-08-05T16:42:28.261Z,22.3
2022-08-05T16:48:35.126Z,21.8
2022-08-05T16:50:34.321Z,21.6
2022-08-05T17:06:54.224Z,21.3
2022-08-05T17:08:56.327Z,21
2022-08-05T17:10:58.448Z,21.1
2022-08-05T17:13:03.862Z,20.9
2022-08-05T17:15:05.814Z,20.9
2022-08-05T17:17:14.484Z,20.8
2022-08-05T17:21:12.107Z,20.4
2022-08-05T17:24:03.166Z,20.3
2022-08-05T17:25:33.461Z,20.3
2022-08-05T17:27:21.572Z,20.2
2022-08-05T17:29:33.958Z,20.3
2022-08-05T17:33:54.471Z,20.3
2022-08-05T17:36:07.662Z,20.3
2022-08-05T17:40:04.041Z,20
2022-08-05T17:42:20.104Z,20.1
2022-08-05T17:44:08.182Z,19.9
2022-08-05T17:48:12.441Z,19.8
2022-08-05T17:50:14.915Z,19.8
2022-08-05T17:52:16.712Z,19.8
2022-08-05T17:54:23.344Z,19.8
2022-08-05T17:56:28.455Z,19.7
2022-08-05T17:58:32.468Z,19.6
2022-08-05T18:00:28.586Z,19.6
2022-08-05T18:02:30.415Z,19.4
2022-08-05T18:04:32.581Z,19.4
2022-08-05T18:06:34.727Z,19.2
2022-08-05T18:08:40.676Z,19.2
2022-08-05T18:10:42.048Z,19.2
2022-08-05T18:12:44.165Z,19.4
2022-08-05T18:14:46.439Z,19.2
2022-08-05T18:16:52.000Z,19
2022-08-05T18:18:50.736Z,19
2022-08-05T18:20:52.655Z,19.1
2022-08-05T18:27:02.215Z,18.8
2022-08-05T18:28:05.298Z,18.9
2022-08-05T18:30:06.943Z,18.7
2022-08-05T18:32:12.751Z,18.7
2022-08-05T18:34:12.652Z,18.7
2022-08-05T18:36:19.096Z,18.6
2022-08-05T18:38:26.119Z,18.7
2022-08-05T18:41:50.581Z,18.5
2022-08-05T18:42:24.601Z,18.4
2022-08-05T18:44:34.798Z,18.6
2022-08-05T18:46:29.057Z,18.5
2022-08-05T18:48:33.167Z,18.3
2022-08-05T18:50:45.159Z,18.3
2022-08-05T18:52:38.168Z,18.2
2022-08-05T18:54:41.413Z,18.2
2022-08-05T18:56:50.973Z,18.2
2022-08-05T18:58:44.550Z,18.3
2022-08-05T19:00:48.132Z,18.2
2022-08-05T19:02:48.907Z,18.2
2022-08-05T19:05:01.460Z,17.9
2022-08-05T19:06:56.193Z,17.9
2022-08-05T19:08:58.393Z,17.7
2022-08-05T19:11:04.702Z,17.8
2022-08-05T19:13:02.654Z,17.8
2022-08-05T19:15:04.713Z,17.7
2022-08-05T19:17:07.790Z,17.6
2022-08-05T19:19:12.244Z,17.6
2022-08-05T19:21:14.247Z,17.6
2022-08-05T19:24:03.250Z,17.6
2022-08-05T19:24:19.004Z,17.5
2022-08-05T19:26:21.139Z,17.4
2022-08-05T19:28:23.258Z,17.3
2022-08-05T19:30:25.470Z,17.4
2022-08-05T19:32:30.664Z,17.2
2022-08-05T19:34:32.817Z,17.3
2022-08-05T19:36:34.905Z,17.2
2022-08-05T19:38:37.047Z,17.2
2022-08-05T19:40:39.200Z,17.2
2022-08-05T19:42:41.441Z,17.1
2022-08-05T19:44:44.875Z,17.1
2022-08-05T19:46:50.332Z,16.9
2022-08-05T19:48:50.836Z,17
2022-08-05T19:50:52.951Z,16.8
2022-08-05T19:52:55.091Z,16.9
2022-08-05T19:54:57.206Z,16.9
2022-08-05T19:56:59.357Z,16.9
2022-08-05T19:59:51.163Z,16.8
2022-08-05T20:01:06.803Z,16.7
2022-08-05T20:03:09.493Z,16.6
2022-08-05T20:05:24.026Z,16.6
2022-08-05T20:07:13.631Z,16.5
2022-08-05T20:09:15.326Z,16.5
2022-08-05T20:13:30.199Z,16.5
2022-08-05T20:15:52.536Z,16.4
2022-08-05T20:17:26.974Z,16.5
2022-08-05T20:19:36.297Z,16.4
2022-08-05T20:20:31.754Z,16.3
2022-08-05T20:22:33.899Z,16.2
2022-08-05T20:24:36.014Z,16.2
2022-08-05T20:26:38.145Z,16.1
2022-08-05T20:28:43.411Z,16.1
2022-08-05T20:32:47.678Z,16
2022-08-05T20:34:49.816Z,16
2022-08-05T20:36:51.959Z,16.1
2022-08-05T20:38:58.106Z,16
2022-08-05T20:40:56.381Z,16
2022-08-05T20:43:01.469Z,16
2022-08-05T20:45:03.602Z,15.9
2022-08-05T20:51:10.042Z,15.8
2022-08-05T20:53:16.269Z,15.7
2022-08-05T20:56:07.758Z,15.7
2022-08-05T20:57:42.593Z,15.7
2022-08-05T20:59:27.108Z,15.7
2022-08-05T21:01:37.238Z,15.7
2022-08-05T21:03:25.921Z,15.7
2022-08-05T21:05:38.060Z,15.7
2022-08-05T21:07:51.014Z,15.7
2022-08-05T21:09:33.720Z,15.6
2022-08-05T21:12:06.577Z,15.6
2022-08-05T21:15:44.346Z,15.6
2022-08-05T21:18:10.570Z,15.5
2022-08-05T21:20:12.712Z,15.5
2022-08-05T21:22:14.820Z,15.4
2022-08-05T21:26:22.238Z,15.4
2022-08-05T21:28:30.624Z,15.3
2022-08-05T21:50:54.127Z,14.7
2022-08-05T21:55:06.799Z,14.7
2022-08-05T21:57:30.821Z,14.7
2022-08-05T21:59:08.023Z,14.7
2022-08-05T22:01:04.930Z,14.7
2022-08-05T22:03:06.893Z,14.6
2022-08-05T22:05:09.191Z,14.6
2022-08-05T22:07:14.312Z,14.5
2022-08-05T22:09:21.571Z,14.5
2022-08-05T22:11:18.521Z,14.5
2022-08-05T22:12:26.410Z,14.5
2022-08-05T22:14:34.967Z,14.5
2022-08-05T22:20:32.987Z,14.4
2022-08-05T22:24:40.076Z,14.3
2022-08-05T22:26:39.658Z,14.3
2022-08-05T22:28:41.823Z,14.3
2022-08-05T22:30:56.044Z,14.3
2022-08-05T22:32:46.225Z,14.3
2022-08-05T22:34:51.503Z,14.3
2022-08-05T22:36:53.761Z,14.3
2022-08-05T22:38:56.055Z,14.3
2022-08-05T22:40:58.185Z,14.3
2022-08-05T22:45:02.525Z,14.3
2022-08-05T22:47:05.745Z,14.2
2022-08-05T22:49:12.103Z,14.2
2022-08-05T22:51:22.357Z,14.3
2022-08-05T22:53:16.707Z,14.2
2022-08-05T22:55:19.607Z,14.2
2022-08-05T22:57:18.501Z,14.2
2022-08-05T22:59:45.542Z,14.3
2022-08-05T23:01:23.034Z,14.3
2022-08-05T23:07:32.435Z,14.2
2022-08-05T23:12:39.525Z,14.1
2022-08-05T23:14:43.786Z,14
2022-08-05T23:20:51.530Z,13.9
2022-08-05T23:22:56.020Z,14
2022-08-05T23:24:56.001Z,13.9
2022-08-05T23:26:58.149Z,13.8
2022-08-05T23:29:00.350Z,13.8
2022-08-05T23:31:17.021Z,13.8
2022-08-05T23:35:09.848Z,13.8
2022-08-05T23:37:11.935Z,13.8
2022-08-05T23:39:17.325Z,13.9
2022-08-05T23:41:16.271Z,13.9
2022-08-05T23:43:25.047Z,13.9
2022-08-05T23:45:23.950Z,13.9
2022-08-05T23:47:25.982Z,13.9
2022-08-05T23:53:46.639Z,14
2022-08-05T23:57:36.805Z,14
